Terminal Aerodrome Forecast
Issued by NWS

Home | Current Version | Previous Version | Text Only | Print | Product List | Glossary On
Versions: 1 2 3 4 5 6 7 8 9 10 11 12 13 14 15 16 17 18 19 20
000
FTUS41 KBOX 162103 AAB
TAFFMH
TAF AMD
KFMH 162103Z 1621/1718 04014KT P6SM SKC
     FM162300 02009KT P6SM SKC
     FM171000 04013KT P6SM FEW250=

USA.gov is the U.S. government's official web portal to all federal, state and local government web resources and services.